Petersburg, Alaska
Current Conditions -  °F | °C
As of 3:16 AM on Monday 20 Oct 2014 (Local Time) from PAPG Reporting Station
Overcast Overcast  
Wind Chill: 50°   Ceiling: 4200
Heat Index: 50°   Visibility: 9mi
Dew Point: 43°   Wind: 10mph
Humidity: 76%   Direction: 140°SE
Pressure: 29.23"   Gusts: 16mph
Location:  56.81°N, 132.96°W
Report Text: PAPG 201116Z 14009G14KT 9SM FEW034 BKN042 OVC050 10/06 A2923 RMK AO1
Loading
Personal Weather Stations






























Interactive Weather Map
Tropical Storm Tracking
New forecast layout! Learn more

10-Day Weather Forecast

Advertisements
Track Severe Weather on mobile